sensor_id;sensor_type;location;lat;lon;timestamp;pressure;altitude;pressure_sealevel;temperature;humidity
4410;BME280;2218;51.408;7.208;2023-03-18T00:00:30;99019.13;;;19.51;37.34
4410;BME280;2218;51.408;7.208;2023-03-18T00:02:58;99016.63;;;19.50;37.43
4410;BME280;2218;51.408;7.208;2023-03-18T00:05:25;99014.94;;;19.49;37.72
4410;BME280;2218;51.408;7.208;2023-03-18T00:07:52;99028.13;;;19.49;37.38
4410;BME280;2218;51.408;7.208;2023-03-18T00:10:19;99022.75;;;19.50;37.62
4410;BME280;2218;51.408;7.208;2023-03-18T00:12:46;99022.84;;;19.49;37.75
4410;BME280;2218;51.408;7.208;2023-03-18T00:15:15;99014.09;;;19.48;37.97
4410;BME280;2218;51.408;7.208;2023-03-18T00:17:43;99018.53;;;19.48;37.80
4410;BME280;2218;51.408;7.208;2023-03-18T00:20:12;99013.28;;;19.48;37.87
4410;BME280;2218;51.408;7.208;2023-03-18T00:22:40;99008.13;;;19.46;38.02
4410;BME280;2218;51.408;7.208;2023-03-18T00:25:11;99013.28;;;19.48;37.70
4410;BME280;2218;51.408;7.208;2023-03-18T00:27:39;99016.88;;;19.47;37.71
4410;BME280;2218;51.408;7.208;2023-03-18T00:30:08;99022.16;;;19.47;37.81
4410;BME280;2218;51.408;7.208;2023-03-18T00:32:38;99027.41;;;19.47;38.14
4410;BME280;2218;51.408;7.208;2023-03-18T00:35:06;99043.22;;;19.47;38.01
4410;BME280;2218;51.408;7.208;2023-03-18T00:37:34;99036.28;;;19.46;38.16
4410;BME280;2218;51.408;7.208;2023-03-18T00:40:06;99031.84;;;19.46;37.98
4410;BME280;2218;51.408;7.208;2023-03-18T00:42:37;99037.25;;;19.45;38.32
4410;BME280;2218;51.408;7.208;2023-03-18T00:45:14;99026.72;;;19.45;38.26
4410;BME280;2218;51.408;7.208;2023-03-18T00:47:43;99032.81;;;19.45;38.31
4410;BME280;2218;51.408;7.208;2023-03-18T00:50:13;99034.63;;;19.45;38.66
4410;BME280;2218;51.408;7.208;2023-03-18T00:52:40;99034.63;;;19.45;38.36
4410;BME280;2218;51.408;7.208;2023-03-18T00:55:07;99026.81;;;19.43;38.54
4410;BME280;2218;51.408;7.208;2023-03-18T00:57:35;99028.63;;;19.43;38.39
4410;BME280;2218;51.408;7.208;2023-03-18T01:00:04;99029.44;;;19.43;38.68
4410;BME280;2218;51.408;7.208;2023-03-18T01:02:32;99032.09;;;19.43;38.48
4410;BME280;2218;51.408;7.208;2023-03-18T01:05:02;99030.41;;;19.42;38.37
4410;BME280;2218;51.408;7.208;2023-03-18T01:07:30;99019.88;;;19.42;38.50
4410;BME280;2218;51.408;7.208;2023-03-18T01:09:57;99008.50;;;19.42;38.39
4410;BME280;2218;51.408;7.208;2023-03-18T01:12:23;99013.78;;;19.42;38.47
4410;BME280;2218;51.408;7.208;2023-03-18T01:14:51;99008.50;;;19.42;38.77
4410;BME280;2218;51.408;7.208;2023-03-18T01:17:18;99006.84;;;19.41;39.10
4410;BME280;2218;51.408;7.208;2023-03-18T01:19:45;99003.38;;;19.40;38.94
4410;BME280;2218;51.408;7.208;2023-03-18T01:22:14;99014.75;;;19.41;38.95
4410;BME280;2218;51.408;7.208;2023-03-18T01:24:45;99021.81;;;19.40;38.65
4410;BME280;2218;51.408;7.208;2023-03-18T01:27:13;99031.53;;;19.40;38.95
4410;BME280;2218;51.408;7.208;2023-03-18T01:29:43;99030.56;;;19.41;38.83
4410;BME280;2218;51.408;7.208;2023-03-18T01:32:15;99031.53;;;19.40;39.02
4410;BME280;2218;51.408;7.208;2023-03-18T01:34:42;99039.44;;;19.40;39.07
4410;BME280;2218;51.408;7.208;2023-03-18T01:37:09;99031.53;;;19.40;38.83
4410;BME280;2218;51.408;7.208;2023-03-18T01:39:39;99039.44;;;19.40;38.75
4410;BME280;2218;51.408;7.208;2023-03-18T01:42:14;99040.34;;;19.38;38.40
4410;BME280;2218;51.408;7.208;2023-03-18T01:44:43;99028.97;;;19.38;39.08
4410;BME280;2218;51.408;7.208;2023-03-18T01:47:11;99028.16;;;19.37;39.11
4410;BME280;2218;51.408;7.208;2023-03-18T01:49:45;99033.44;;;19.37;38.99
4410;BME280;2218;51.408;7.208;2023-03-18T01:52:18;99035.09;;;19.38;39.03
4410;BME280;2218;51.408;7.208;2023-03-18T01:54:54;99038.69;;;19.37;39.13
4410;BME280;2218;51.408;7.208;2023-03-18T01:57:24;99035.34;;;19.35;39.15
4410;BME280;2218;51.408;7.208;2023-03-18T01:59:54;99029.25;;;19.35;39.16
4410;BME280;2218;51.408;7.208;2023-03-18T02:02:23;99030.09;;;19.35;39.35
4410;BME280;2218;51.408;7.208;2023-03-18T02:04:54;99035.34;;;19.35;39.06
4410;BME280;2218;51.408;7.208;2023-03-18T02:07:25;99039.78;;;19.35;39.02
4410;BME280;2218;51.408;7.208;2023-03-18T02:09:58;99040.63;;;19.35;39.17
4410;BME280;2218;51.408;7.208;2023-03-18T02:12:31;99039.78;;;19.35;39.42
4410;BME280;2218;51.408;7.208;2023-03-18T02:15:01;99054.75;;;19.34;39.50
4410;BME280;2218;51.408;7.208;2023-03-18T02:17:34;99047.78;;;19.33;39.23
4410;BME280;2218;51.408;7.208;2023-03-18T02:20:16;99046.00;;;19.34;39.48
4410;BME280;2218;51.408;7.208;2023-03-18T02:22:51;99032.00;;;19.33;39.52
4410;BME280;2218;51.408;7.208;2023-03-18T02:25:35;99038.09;;;19.34;39.25
4410;BME280;2218;51.408;7.208;2023-03-18T02:28:09;99030.31;;;19.32;39.68
4410;BME280;2218;51.408;7.208;2023-03-18T02:30:42;99033.94;;;19.31;39.21
4410;BME280;2218;51.408;7.208;2023-03-18T02:33:15;99035.59;;;19.32;39.58
4410;BME280;2218;51.408;7.208;2023-03-18T02:35:46;99017.97;;;19.33;39.52
4410;BME280;2218;51.408;7.208;2023-03-18T02:38:16;99019.78;;;19.32;39.60
4410;BME280;2218;51.408;7.208;2023-03-18T02:40:43;99020.75;;;19.31;39.77
4410;BME280;2218;51.408;7.208;2023-03-18T02:43:23;99012.84;;;19.31;39.79
4410;BME280;2218;51.408;7.208;2023-03-18T02:46:20;99016.44;;;19.30;39.63
4410;BME280;2218;51.408;7.208;2023-03-18T02:48:50;99014.78;;;19.29;39.75
4410;BME280;2218;51.408;7.208;2023-03-18T02:51:19;99020.75;;;19.31;39.74
4410;BME280;2218;51.408;7.208;2023-03-18T02:53:47;99026.97;;;19.30;39.91
4410;BME280;2218;51.408;7.208;2023-03-18T02:56:15;99023.53;;;19.30;39.60
4410;BME280;2218;51.408;7.208;2023-03-18T02:58:45;99029.63;;;19.30;39.71
4410;BME280;2218;51.408;7.208;2023-03-18T03:01:14;99032.25;;;19.30;39.99
4410;BME280;2218;51.408;7.208;2023-03-18T03:03:41;99041.13;;;19.29;39.66
4410;BME280;2218;51.408;7.208;2023-03-18T03:06:10;99030.59;;;19.29;39.79
4410;BME280;2218;51.408;7.208;2023-03-18T03:08:38;99040.25;;;19.29;39.81
4410;BME280;2218;51.408;7.208;2023-03-18T03:11:06;99035.97;;;19.28;39.88
4410;BME280;2218;51.408;7.208;2023-03-18T03:13:37;99040.38;;;19.27;40.12
4410;BME280;2218;51.408;7.208;2023-03-18T03:16:06;99043.03;;;19.27;40.17
4410;BME280;2218;51.408;7.208;2023-03-18T03:18:35;99043.03;;;19.27;40.10
4410;BME280;2218;51.408;7.208;2023-03-18T03:21:03;99043.03;;;19.27;39.92
4410;BME280;2218;51.408;7.208;2023-03-18T03:23:31;99048.28;;;19.27;39.96
4410;BME280;2218;51.408;7.208;2023-03-18T03:25:58;99048.28;;;19.27;40.24
4410;BME280;2218;51.408;7.208;2023-03-18T03:28:26;99053.56;;;19.27;40.36
4410;BME280;2218;51.408;7.208;2023-03-18T03:30:53;99049.25;;;19.26;40.32
4410;BME280;2218;51.408;7.208;2023-03-18T03:33:24;99049.25;;;19.26;40.34
4410;BME280;2218;51.408;7.208;2023-03-18T03:35:51;99057.16;;;19.26;40.29
4410;BME280;2218;51.408;7.208;2023-03-18T03:38:19;99055.38;;;19.27;40.40
4410;BME280;2218;51.408;7.208;2023-03-18T03:40:47;99059.78;;;19.26;40.28
4410;BME280;2218;51.408;7.208;2023-03-18T03:43:15;99063.25;;;19.27;40.24
4410;BME280;2218;51.408;7.208;2023-03-18T03:45:43;99064.22;;;19.26;40.57
4410;BME280;2218;51.408;7.208;2023-03-18T03:48:10;99062.44;;;19.26;40.28
4410;BME280;2218;51.408;7.208;2023-03-18T03:50:39;99064.09;;;19.27;40.35
4410;BME280;2218;51.408;7.208;2023-03-18T03:53:07;99062.44;;;19.26;40.44
4410;BME280;2218;51.408;7.208;2023-03-18T03:55:34;99061.47;;;19.27;40.53
4410;BME280;2218;51.408;7.208;2023-03-18T03:58:03;99069.38;;;19.27;40.41
4410;BME280;2218;51.408;7.208;2023-03-18T04:00:31;99079.91;;;19.27;40.62
4410;BME280;2218;51.408;7.208;2023-03-18T04:02:58;99070.19;;;19.28;40.62
4410;BME280;2218;51.408;7.208;2023-03-18T04:05:26;99074.63;;;19.27;40.51
4410;BME280;2218;51.408;7.208;2023-03-18T04:07:58;99070.34;;;19.26;40.26
4410;BME280;2218;51.408;7.208;2023-03-18T04:10:34;99072.97;;;19.26;40.46
4410;BME280;2218;51.408;7.208;2023-03-18T04:13:03;99067.69;;;19.26;40.56
4410;BME280;2218;51.408;7.208;2023-03-18T04:15:30;99065.06;;;19.26;40.86
4410;BME280;2218;51.408;7.208;2023-03-18T04:18:03;99073.81;;;19.27;40.73
4410;BME280;2218;51.408;7.208;2023-03-18T04:20:33;99073.81;;;19.27;40.94
4410;BME280;2218;51.408;7.208;2023-03-18T04:23:05;99083.50;;;19.26;40.83
4410;BME280;2218;51.408;7.208;2023-03-18T04:25:32;99083.50;;;19.26;40.76
4410;BME280;2218;51.408;7.208;2023-03-18T04:28:00;99086.13;;;19.26;40.75
4410;BME280;2218;51.408;7.208;2023-03-18T04:30:27;99088.78;;;19.26;40.99
4410;BME280;2218;51.408;7.208;2023-03-18T04:33:12;99097.50;;;19.27;40.76
4410;BME280;2218;51.408;7.208;2023-03-18T04:35:39;99099.31;;;19.26;41.00
4410;BME280;2218;51.408;7.208;2023-03-18T04:38:09;99096.69;;;19.26;40.98
4410;BME280;2218;51.408;7.208;2023-03-18T04:40:36;99096.69;;;19.26;40.87
4410;BME280;2218;51.408;7.208;2023-03-18T04:43:03;99095.00;;;19.25;41.07
4410;BME280;2218;51.408;7.208;2023-03-18T04:45:30;99110.69;;;19.27;41.25
4410;BME280;2218;51.408;7.208;2023-03-18T04:47:59;99100.28;;;19.25;41.15
4410;BME280;2218;51.408;7.208;2023-03-18T04:50:28;99104.59;;;19.26;41.07
4410;BME280;2218;51.408;7.208;2023-03-18T04:52:55;99107.22;;;19.26;40.99
4410;BME280;2218;51.408;7.208;2023-03-18T04:55:28;99115.13;;;19.26;41.05
4410;BME280;2218;51.408;7.208;2023-03-18T04:57:55;99110.69;;;19.27;40.99
4410;BME280;2218;51.408;7.208;2023-03-18T05:00:25;99113.31;;;19.27;40.93
4410;BME280;2218;51.408;7.208;2023-03-18T05:03:01;99109.84;;;19.26;40.91
4410;BME280;2218;51.408;7.208;2023-03-18T05:05:30;99109.00;;;19.26;41.03
4410;BME280;2218;51.408;7.208;2023-03-18T05:07:58;99116.09;;;19.25;41.41
4410;BME280;2218;51.408;7.208;2023-03-18T05:10:27;99115.13;;;19.26;41.36
4410;BME280;2218;51.408;7.208;2023-03-18T05:12:55;99110.81;;;19.25;41.35
4410;BME280;2218;51.408;7.208;2023-03-18T05:15:29;99108.19;;;19.25;41.37
4410;BME280;2218;51.408;7.208;2023-03-18T05:17:58;99109.00;;;19.26;41.06
4410;BME280;2218;51.408;7.208;2023-03-18T05:20:27;99114.28;;;19.26;41.36
4410;BME280;2218;51.408;7.208;2023-03-18T05:22:54;99110.81;;;19.25;41.52
4410;BME280;2218;51.408;7.208;2023-03-18T05:25:42;99112.47;;;19.26;41.35
4410;BME280;2218;51.408;7.208;2023-03-18T05:28:09;99109.84;;;19.26;41.30
4410;BME280;2218;51.408;7.208;2023-03-18T05:30:44;99113.44;;;19.25;41.35
4410;BME280;2218;51.408;7.208;2023-03-18T05:33:14;99119.56;;;19.26;41.52
4410;BME280;2218;51.408;7.208;2023-03-18T05:35:48;99124.00;;;19.25;41.49
4410;BME280;2218;51.408;7.208;2023-03-18T05:38:17;99126.63;;;19.25;41.59
4410;BME280;2218;51.408;7.208;2023-03-18T05:40:46;99121.34;;;19.25;41.41
4410;BME280;2218;51.408;7.208;2023-03-18T05:43:21;99119.66;;;19.24;41.42
4410;BME280;2218;51.408;7.208;2023-03-18T05:45:52;99126.63;;;19.25;41.71
4410;BME280;2218;51.408;7.208;2023-03-18T05:48:25;99116.91;;;19.26;41.68
4410;BME280;2218;51.408;7.208;2023-03-18T05:50:56;99124.00;;;19.25;41.73
4410;BME280;2218;51.408;7.208;2023-03-18T05:53:26;99123.16;;;19.25;41.43
4410;BME280;2218;51.408;7.208;2023-03-18T05:56:05;99131.88;;;19.25;41.40
4410;BME280;2218;51.408;7.208;2023-03-18T05:58:33;99133.69;;;19.25;41.68
4410;BME280;2218;51.408;7.208;2023-03-18T06:01:18;99138.81;;;19.26;41.86
4410;BME280;2218;51.408;7.208;2023-03-18T06:03:46;99136.19;;;19.26;41.43
4410;BME280;2218;51.408;7.208;2023-03-18T06:06:13;99137.16;;;19.25;41.80
4410;BME280;2218;51.408;7.208;2023-03-18T06:08:40;99138.97;;;19.25;41.68
4410;BME280;2218;51.408;7.208;2023-03-18T06:11:09;99145.06;;;19.25;41.49
4410;BME280;2218;51.408;7.208;2023-03-18T06:13:36;99151.16;;;19.26;41.81
4410;BME280;2218;51.408;7.208;2023-03-18T06:16:05;99146.72;;;19.26;41.52
4410;BME280;2218;51.408;7.208;2023-03-18T06:18:33;99151.16;;;19.26;41.67
4410;BME280;2218;51.408;7.208;2023-03-18T06:21:00;99150.31;;;19.25;41.86
4410;BME280;2218;51.408;7.208;2023-03-18T06:23:28;99156.44;;;19.26;41.85
4410;BME280;2218;51.408;7.208;2023-03-18T06:25:56;99163.50;;;19.25;41.42
4410;BME280;2218;51.408;7.208;2023-03-18T06:28:31;99157.28;;;19.26;41.68
4410;BME280;2218;51.408;7.208;2023-03-18T06:31:01;99170.44;;;19.26;41.70
4410;BME280;2218;51.408;7.208;2023-03-18T06:33:28;99162.53;;;19.26;41.76
4410;BME280;2218;51.408;7.208;2023-03-18T06:35:55;99167.81;;;19.26;41.90
4410;BME280;2218;51.408;7.208;2023-03-18T06:38:27;99173.06;;;19.26;41.80
4410;BME280;2218;51.408;7.208;2023-03-18T06:40:56;99175.72;;;19.26;41.76
4410;BME280;2218;51.408;7.208;2023-03-18T06:43:23;99177.50;;;19.26;42.01
4410;BME280;2218;51.408;7.208;2023-03-18T06:45:51;99179.19;;;19.27;41.67
4410;BME280;2218;51.408;7.208;2023-03-18T06:48:19;99179.19;;;19.27;42.02
4410;BME280;2218;51.408;7.208;2023-03-18T06:50:47;99184.44;;;19.27;42.23
4410;BME280;2218;51.408;7.208;2023-03-18T06:53:21;99189.84;;;19.25;41.88
4410;BME280;2218;51.408;7.208;2023-03-18T06:55:49;99190.56;;;19.27;41.73
4410;BME280;2218;51.408;7.208;2023-03-18T06:58:20;99184.44;;;19.27;42.05
4410;BME280;2218;51.408;7.208;2023-03-18T07:00:58;99190.56;;;19.27;42.14
4410;BME280;2218;51.408;7.208;2023-03-18T07:03:30;99199.41;;;19.26;42.03
4410;BME280;2218;51.408;7.208;2023-03-18T07:05:58;99189.72;;;19.27;41.94
4410;BME280;2218;51.408;7.208;2023-03-18T07:08:25;99190.56;;;19.27;41.81
4410;BME280;2218;51.408;7.208;2023-03-18T07:10:53;99201.09;;;19.27;41.91
4410;BME280;2218;51.408;7.208;2023-03-18T07:13:20;99202.88;;;19.27;41.89
4410;BME280;2218;51.408;7.208;2023-03-18T07:15:47;99199.28;;;19.28;42.10
4410;BME280;2218;51.408;7.208;2023-03-18T07:18:16;99200.13;;;19.28;42.21
4410;BME280;2218;51.408;7.208;2023-03-18T07:20:45;99202.75;;;19.28;41.92
4410;BME280;2218;51.408;7.208;2023-03-18T07:23:13;99209.72;;;19.29;41.96
4410;BME280;2218;51.408;7.208;2023-03-18T07:25:40;99214.03;;;19.30;42.03
4410;BME280;2218;51.408;7.208;2023-03-18T07:28:09;99209.72;;;19.29;41.81
4410;BME280;2218;51.408;7.208;2023-03-18T07:30:36;99212.38;;;19.29;42.14
4410;BME280;2218;51.408;7.208;2023-03-18T07:33:04;99208.78;;;19.30;41.95
4410;BME280;2218;51.408;7.208;2023-03-18T07:35:32;99214.88;;;19.31;41.96
4410;BME280;2218;51.408;7.208;2023-03-18T07:37:59;99215.72;;;19.31;42.16
4410;BME280;2218;51.408;7.208;2023-03-18T07:40:26;99220.00;;;19.32;42.36
4410;BME280;2218;51.408;7.208;2023-03-18T07:42:53;99219.19;;;19.32;42.15
4410;BME280;2218;51.408;7.208;2023-03-18T07:45:20;99224.31;;;19.33;42.02
4410;BME280;2218;51.408;7.208;2023-03-18T07:47:47;99226.03;;;19.34;42.12
4410;BME280;2218;51.408;7.208;2023-03-18T07:50:15;99225.06;;;19.35;42.21
4410;BME280;2218;51.408;7.208;2023-03-18T07:52:44;99231.16;;;19.36;42.07
4410;BME280;2218;51.408;7.208;2023-03-18T07:55:11;99232.00;;;19.36;42.10
4410;BME280;2218;51.408;7.208;2023-03-18T07:57:39;99232.13;;;19.35;42.21
4410;BME280;2218;51.408;7.208;2023-03-18T08:00:10;99231.16;;;19.36;42.23
4410;BME280;2218;51.408;7.208;2023-03-18T08:02:40;99232.00;;;19.36;42.18
4410;BME280;2218;51.408;7.208;2023-03-18T08:05:08;99237.03;;;19.40;42.36
4410;BME280;2218;51.408;7.208;2023-03-18T08:07:36;99236.09;;;19.41;42.46
4410;BME280;2218;51.408;7.208;2023-03-18T08:10:07;99243.03;;;19.42;42.28
4410;BME280;2218;51.408;7.208;2023-03-18T08:12:34;99242.06;;;19.43;42.44
4410;BME280;2218;51.408;7.208;2023-03-18T08:15:02;99235.81;;;19.44;42.46
4410;BME280;2218;51.408;7.208;2023-03-18T08:17:29;99244.47;;;19.46;42.18
4410;BME280;2218;51.408;7.208;2023-03-18T08:19:57;99244.47;;;19.46;42.32
4410;BME280;2218;51.408;7.208;2023-03-18T08:22:24;99249.63;;;19.47;42.43
4410;BME280;2218;51.408;7.208;2023-03-18T08:24:51;99245.19;;;19.48;42.35
4410;BME280;2218;51.408;7.208;2023-03-18T08:27:19;99254.75;;;19.49;42.42
4410;BME280;2218;51.408;7.208;2023-03-18T08:29:46;99257.38;;;19.49;42.43
4410;BME280;2218;51.408;7.208;2023-03-18T08:32:15;99259.31;;;19.47;42.73
4410;BME280;2218;51.408;7.208;2023-03-18T08:34:42;99266.25;;;19.48;42.53
4410;BME280;2218;51.408;7.208;2023-03-18T08:37:09;99262.66;;;19.49;42.70
4410;BME280;2218;51.408;7.208;2023-03-18T08:39:36;99273.19;;;19.49;42.73
4410;BME280;2218;51.408;7.208;2023-03-18T08:42:05;99271.44;;;19.49;42.79
4410;BME280;2218;51.408;7.208;2023-03-18T08:44:33;99280.28;;;19.48;42.45
4410;BME280;2218;51.408;7.208;2023-03-18T08:47:00;99282.91;;;19.48;42.70
4410;BME280;2218;51.408;7.208;2023-03-18T08:49:27;99278.47;;;19.49;42.64
4410;BME280;2218;51.408;7.208;2023-03-18T08:51:54;99284.59;;;19.49;42.78
4410;BME280;2218;51.408;7.208;2023-03-18T08:54:22;99281.09;;;19.49;42.72
4410;BME280;2218;51.408;7.208;2023-03-18T08:56:49;99286.38;;;19.49;42.80
4410;BME280;2218;51.408;7.208;2023-03-18T08:59:17;99293.34;;;19.50;42.73
4410;BME280;2218;51.408;7.208;2023-03-18T09:01:45;99289.88;;;19.49;42.86
4410;BME280;2218;51.408;7.208;2023-03-18T09:04:13;99292.53;;;19.49;42.75
4410;BME280;2218;51.408;7.208;2023-03-18T09:06:40;99291.66;;;19.49;42.94
4410;BME280;2218;51.408;7.208;2023-03-18T09:09:07;99286.38;;;19.49;42.55
4410;BME280;2218;51.408;7.208;2023-03-18T09:11:36;99283.75;;;19.49;42.87
4410;BME280;2218;51.408;7.208;2023-03-18T09:14:03;99280.19;;;19.50;42.94
4410;BME280;2218;51.408;7.208;2023-03-18T09:16:31;99292.38;;;19.51;42.93
4410;BME280;2218;51.408;7.208;2023-03-18T09:18:59;99287.97;;;19.51;42.92
4410;BME280;2218;51.408;7.208;2023-03-18T09:21:26;99288.78;;;19.52;42.95
4410;BME280;2218;51.408;7.208;2023-03-18T09:23:53;99290.47;;;19.53;42.90
4410;BME280;2218;51.408;7.208;2023-03-18T09:26:20;99296.56;;;19.53;42.90
4410;BME280;2218;51.408;7.208;2023-03-18T09:28:47;99296.69;;;19.52;42.91
4410;BME280;2218;51.408;7.208;2023-03-18T09:31:14;99301.97;;;19.52;42.63
4410;BME280;2218;51.408;7.208;2023-03-18T09:33:41;99294.78;;;19.54;42.85
4410;BME280;2218;51.408;7.208;2023-03-18T09:36:10;99301.84;;;19.53;42.76
4410;BME280;2218;51.408;7.208;2023-03-18T09:38:37;99307.94;;;19.54;42.91
4410;BME280;2218;51.408;7.208;2023-03-18T09:41:18;99298.28;;;19.54;42.78
4410;BME280;2218;51.408;7.208;2023-03-18T09:43:58;99309.66;;;19.55;42.85
4410;BME280;2218;51.408;7.208;2023-03-18T09:46:45;99306.19;;;19.54;42.78
4410;BME280;2218;51.408;7.208;2023-03-18T09:49:35;99300.78;;;19.56;42.76
4410;BME280;2218;51.408;7.208;2023-03-18T09:52:17;99293.84;;;19.55;42.69
4410;BME280;2218;51.408;7.208;2023-03-18T09:54:55;99294.69;;;19.55;42.90
4410;BME280;2218;51.408;7.208;2023-03-18T09:57:31;99304.38;;;19.55;42.66
4410;BME280;2218;51.408;7.208;2023-03-18T10:00:04;99304.25;;;19.56;42.74
4410;BME280;2218;51.408;7.208;2023-03-18T10:02:39;99310.38;;;19.57;42.76
4410;BME280;2218;51.408;7.208;2023-03-18T10:05:13;99308.69;;;19.56;42.85
4410;BME280;2218;51.408;7.208;2023-03-18T10:07:49;99303.41;;;19.56;42.88
4410;BME280;2218;51.408;7.208;2023-03-18T10:10:24;99297.19;;;19.57;42.93
4410;BME280;2218;51.408;7.208;2023-03-18T10:13:02;99304.13;;;19.58;42.77
4410;BME280;2218;51.408;7.208;2023-03-18T10:15:40;99304.13;;;19.58;42.90
4410;BME280;2218;51.408;7.208;2023-03-18T10:18:13;99297.88;;;19.59;42.95
4410;BME280;2218;51.408;7.208;2023-03-18T10:20:57;99300.66;;;19.57;42.83
4410;BME280;2218;51.408;7.208;2023-03-18T10:23:42;99305.81;;;19.59;42.80
4410;BME280;2218;51.408;7.208;2023-03-18T10:26:18;99304.91;;;19.60;43.06
4410;BME280;2218;51.408;7.208;2023-03-18T10:29:03;99307.53;;;19.60;42.99
4410;BME280;2218;51.408;7.208;2023-03-18T10:31:55;99299.63;;;19.60;42.99
4410;BME280;2218;51.408;7.208;2023-03-18T10:34:33;99297.00;;;19.60;42.88
4410;BME280;2218;51.408;7.208;2023-03-18T10:37:12;99302.25;;;19.60;43.06
4410;BME280;2218;51.408;7.208;2023-03-18T10:39:44;99307.53;;;19.60;43.10
4410;BME280;2218;51.408;7.208;2023-03-18T10:42:19;99305.81;;;19.59;42.80
4410;BME280;2218;51.408;7.208;2023-03-18T10:44:48;99305.81;;;19.59;42.91
4410;BME280;2218;51.408;7.208;2023-03-18T10:47:20;99307.53;;;19.60;43.13
4410;BME280;2218;51.408;7.208;2023-03-18T10:50:02;99303.16;;;19.59;43.11
4410;BME280;2218;51.408;7.208;2023-03-18T10:52:37;99294.34;;;19.60;43.04
4410;BME280;2218;51.408;7.208;2023-03-18T10:55:15;99297.81;;;19.60;43.10
4410;BME280;2218;51.408;7.208;2023-03-18T10:57:42;99292.56;;;19.60;43.01
4410;BME280;2218;51.408;7.208;2023-03-18T11:00:26;99303.94;;;19.61;42.99
4410;BME280;2218;51.408;7.208;2023-03-18T11:02:55;99298.66;;;19.61;42.95
4410;BME280;2218;51.408;7.208;2023-03-18T11:05:25;99302.00;;;19.63;43.03
4410;BME280;2218;51.408;7.208;2023-03-18T11:08:00;99298.41;;;19.64;42.86
4410;BME280;2218;51.408;7.208;2023-03-18T11:10:35;99291.47;;;19.63;43.24
4410;BME280;2218;51.408;7.208;2023-03-18T11:13:04;99288.00;;;19.62;42.98
4410;BME280;2218;51.408;7.208;2023-03-18T11:15:36;99289.78;;;19.62;43.05
4410;BME280;2218;51.408;7.208;2023-03-18T11:18:05;99282.84;;;19.61;43.13
4410;BME280;2218;51.408;7.208;2023-03-18T11:20:43;99280.09;;;19.62;42.92
4410;BME280;2218;51.408;7.208;2023-03-18T11:23:16;99275.66;;;19.63;42.81
4410;BME280;2218;51.408;7.208;2023-03-18T11:25:47;99283.56;;;19.63;42.94
4410;BME280;2218;51.408;7.208;2023-03-18T11:28:23;99274.69;;;19.64;42.97
4410;BME280;2218;51.408;7.208;2023-03-18T11:30:56;99278.28;;;19.63;43.10
4410;BME280;2218;51.408;7.208;2023-03-18T11:33:30;99275.66;;;19.63;43.00
4410;BME280;2218;51.408;7.208;2023-03-18T11:36:05;99277.31;;;19.64;42.92
4410;BME280;2218;51.408;7.208;2023-03-18T11:38:35;99290.63;;;19.62;42.81
4410;BME280;2218;51.408;7.208;2023-03-18T11:41:12;99286.19;;;19.63;42.93
4410;BME280;2218;51.408;7.208;2023-03-18T11:43:56;99287.03;;;19.63;42.91
4410;BME280;2218;51.408;7.208;2023-03-18T11:46:29;99288.81;;;19.63;43.07
4410;BME280;2218;51.408;7.208;2023-03-18T11:48:58;99278.28;;;19.63;42.99
4410;BME280;2218;51.408;7.208;2023-03-18T11:51:52;99273.84;;;19.63;43.07
4410;BME280;2218;51.408;7.208;2023-03-18T11:55:01;99272.91;;;19.65;42.92
4410;BME280;2218;51.408;7.208;2023-03-18T11:57:42;99268.56;;;19.63;43.12
4410;BME280;2218;51.408;7.208;2023-03-18T12:00:28;99273.84;;;19.63;43.12
4410;BME280;2218;51.408;7.208;2023-03-18T12:03:51;99271.34;;;19.62;43.03
4410;BME280;2218;51.408;7.208;2023-03-18T12:06:26;99276.38;;;19.65;42.77
4410;BME280;2218;51.408;7.208;2023-03-18T12:09:05;99277.31;;;19.64;42.94
4410;BME280;2218;51.408;7.208;2023-03-18T12:11:58;99277.31;;;19.64;42.78
4410;BME280;2218;51.408;7.208;2023-03-18T12:14:39;99275.56;;;19.65;42.77
4410;BME280;2218;51.408;7.208;2023-03-18T12:17:24;99271.94;;;19.66;43.03
4410;BME280;2218;51.408;7.208;2023-03-18T12:20:46;99276.25;;;19.67;42.83
4410;BME280;2218;51.408;7.208;2023-03-18T12:23:53;99282.38;;;19.67;43.09
4410;BME280;2218;51.408;7.208;2023-03-18T12:26:31;99267.38;;;19.68;43.01
4410;BME280;2218;51.408;7.208;2023-03-18T12:29:42;99270.84;;;19.68;42.86
4410;BME280;2218;51.408;7.208;2023-03-18T12:32:25;99272.66;;;19.68;42.76
4410;BME280;2218;51.408;7.208;2023-03-18T12:35:33;99265.47;;;19.70;42.82
4410;BME280;2218;51.408;7.208;2023-03-18T12:38:37;99271.59;;;19.70;42.64
4410;BME280;2218;51.408;7.208;2023-03-18T12:41:14;99271.59;;;19.70;42.92
4410;BME280;2218;51.408;7.208;2023-03-18T12:43:57;99274.09;;;19.72;42.67
4410;BME280;2218;51.408;7.208;2023-03-18T12:46:35;99280.34;;;19.71;42.95
4410;BME280;2218;51.408;7.208;2023-03-18T12:49:14;99275.19;;;19.69;42.76
4410;BME280;2218;51.408;7.208;2023-03-18T12:51:49;99270.84;;;19.68;42.97
4410;BME280;2218;51.408;7.208;2023-03-18T12:54:22;99272.56;;;19.69;42.68
4410;BME280;2218;51.408;7.208;2023-03-18T12:56:57;99268.22;;;19.68;42.94
4410;BME280;2218;51.408;7.208;2023-03-18T12:59:31;99257.66;;;19.68;42.66
4410;BME280;2218;51.408;7.208;2023-03-18T13:02:37;99251.47;;;19.69;42.85
4410;BME280;2218;51.408;7.208;2023-03-18T13:05:18;99244.41;;;19.70;42.91
4410;BME280;2218;51.408;7.208;2023-03-18T13:07:57;99255.78;;;19.70;43.24
4410;BME280;2218;51.408;7.208;2023-03-18T13:10:32;99249.66;;;19.70;42.79
4410;BME280;2218;51.408;7.208;2023-03-18T13:13:05;99247.03;;;19.70;43.31
4410;BME280;2218;51.408;7.208;2023-03-18T13:15:39;99246.19;;;19.69;42.75
4410;BME280;2218;51.408;7.208;2023-03-18T13:18:18;99244.25;;;19.71;42.68
4410;BME280;2218;51.408;7.208;2023-03-18T13:20:48;99239.97;;;19.70;42.52
4410;BME280;2218;51.408;7.208;2023-03-18T13:27:07;99231.09;;;19.71;42.71
4410;BME280;2218;51.408;7.208;2023-03-18T13:29:50;99245.81;;;19.74;42.47
4410;BME280;2218;51.408;7.208;2023-03-18T13:32:41;99235.25;;;19.74;42.58
4410;BME280;2218;51.408;7.208;2023-03-18T13:35:48;99231.69;;;19.75;42.80
4410;BME280;2218;51.408;7.208;2023-03-18T13:38:47;99240.66;;;19.72;42.72
4410;BME280;2218;51.408;7.208;2023-03-18T13:42:06;99237.06;;;19.73;42.73
4410;BME280;2218;51.408;7.208;2023-03-18T13:44:43;99230.13;;;19.72;42.45
4410;BME280;2218;51.408;7.208;2023-03-18T13:47:18;99223.88;;;19.73;42.78
4410;BME280;2218;51.408;7.208;2023-03-18T13:49:47;99228.31;;;19.73;42.78
4410;BME280;2218;51.408;7.208;2023-03-18T13:52:32;99223.03;;;19.73;42.50
4410;BME280;2218;51.408;7.208;2023-03-18T13:55:05;99224.84;;;19.72;42.72